sensor_id;sensor_type;location;lat;lon;timestamp;P1;durP1;ratioP1;P2;durP2;ratioP2
3847;SDS011;1939;48.720;9.166;2023-02-26T00:01:03;3.23;;;1.47;;
3847;SDS011;1939;48.720;9.166;2023-02-26T00:03:35;3.30;;;1.60;;
3847;SDS011;1939;48.720;9.166;2023-02-26T00:06:00;2.57;;;1.50;;
3847;SDS011;1939;48.720;9.166;2023-02-26T00:08:26;2.70;;;2.00;;
3847;SDS011;1939;48.720;9.166;2023-02-26T00:10:51;6.23;;;2.53;;
3847;SDS011;1939;48.720;9.166;2023-02-26T00:13:18;4.73;;;2.87;;
3847;SDS011;1939;48.720;9.166;2023-02-26T00:15:44;3.37;;;2.23;;
3847;SDS011;1939;48.720;9.166;2023-02-26T00:18:11;2.93;;;1.23;;
3847;SDS011;1939;48.720;9.166;2023-02-26T00:20:37;4.63;;;2.47;;
3847;SDS011;1939;48.720;9.166;2023-02-26T00:23:02;4.53;;;2.70;;
3847;SDS011;1939;48.720;9.166;2023-02-26T00:25:28;2.87;;;2.37;;
3847;SDS011;1939;48.720;9.166;2023-02-26T00:27:53;5.77;;;2.20;;
3847;SDS011;1939;48.720;9.166;2023-02-26T00:30:18;6.73;;;2.20;;
3847;SDS011;1939;48.720;9.166;2023-02-26T00:32:44;4.40;;;2.00;;
3847;SDS011;1939;48.720;9.166;2023-02-26T00:35:11;3.07;;;1.87;;
3847;SDS011;1939;48.720;9.166;2023-02-26T00:37:43;5.83;;;2.87;;
3847;SDS011;1939;48.720;9.166;2023-02-26T00:40:23;5.63;;;2.43;;
3847;SDS011;1939;48.720;9.166;2023-02-26T00:42:53;6.30;;;2.67;;
3847;SDS011;1939;48.720;9.166;2023-02-26T00:45:18;4.77;;;1.87;;
3847;SDS011;1939;48.720;9.166;2023-02-26T00:47:50;3.80;;;2.30;;
3847;SDS011;1939;48.720;9.166;2023-02-26T00:50:20;8.73;;;2.27;;
3847;SDS011;1939;48.720;9.166;2023-02-26T00:55:29;4.50;;;1.90;;
3847;SDS011;1939;48.720;9.166;2023-02-26T00:57:55;6.80;;;2.80;;
3847;SDS011;1939;48.720;9.166;2023-02-26T01:00:20;3.77;;;2.30;;
3847;SDS011;1939;48.720;9.166;2023-02-26T01:02:46;11.27;;;2.60;;
3847;SDS011;1939;48.720;9.166;2023-02-26T01:05:11;5.17;;;2.53;;
3847;SDS011;1939;48.720;9.166;2023-02-26T01:07:48;6.10;;;2.87;;
3847;SDS011;1939;48.720;9.166;2023-02-26T01:10:15;5.00;;;2.63;;
3847;SDS011;1939;48.720;9.166;2023-02-26T01:12:40;3.67;;;2.23;;
3847;SDS011;1939;48.720;9.166;2023-02-26T01:15:06;5.63;;;2.97;;
3847;SDS011;1939;48.720;9.166;2023-02-26T01:19:59;2.60;;;2.17;;
3847;SDS011;1939;48.720;9.166;2023-02-26T01:22:36;7.20;;;2.57;;
3847;SDS011;1939;48.720;9.166;2023-02-26T01:25:05;13.63;;;3.10;;
3847;SDS011;1939;48.720;9.166;2023-02-26T01:27:31;5.90;;;2.40;;
3847;SDS011;1939;48.720;9.166;2023-02-26T01:29:56;2.77;;;2.27;;
3847;SDS011;1939;48.720;9.166;2023-02-26T01:32:23;5.70;;;2.40;;
3847;SDS011;1939;48.720;9.166;2023-02-26T01:34:53;2.93;;;2.13;;
3847;SDS011;1939;48.720;9.166;2023-02-26T01:42:18;3.60;;;2.67;;
3847;SDS011;1939;48.720;9.166;2023-02-26T01:47:10;5.17;;;2.07;;
3847;SDS011;1939;48.720;9.166;2023-02-26T01:49:38;3.57;;;2.43;;
3847;SDS011;1939;48.720;9.166;2023-02-26T01:53:13;6.93;;;2.17;;
3847;SDS011;1939;48.720;9.166;2023-02-26T01:54:49;10.00;;;2.13;;
3847;SDS011;1939;48.720;9.166;2023-02-26T01:57:14;4.00;;;1.77;;
3847;SDS011;1939;48.720;9.166;2023-02-26T01:59:41;3.70;;;1.83;;
3847;SDS011;1939;48.720;9.166;2023-02-26T02:02:08;3.60;;;1.80;;
3847;SDS011;1939;48.720;9.166;2023-02-26T02:04:34;6.03;;;2.43;;
3847;SDS011;1939;48.720;9.166;2023-02-26T02:06:59;4.30;;;2.90;;
3847;SDS011;1939;48.720;9.166;2023-02-26T02:09:25;3.47;;;1.87;;
3847;SDS011;1939;48.720;9.166;2023-02-26T02:14:17;4.33;;;2.40;;
3847;SDS011;1939;48.720;9.166;2023-02-26T02:24:10;3.53;;;2.43;;
3847;SDS011;1939;48.720;9.166;2023-02-26T02:29:27;4.90;;;1.83;;
3847;SDS011;1939;48.720;9.166;2023-02-26T02:32:04;7.43;;;2.40;;
3847;SDS011;1939;48.720;9.166;2023-02-26T02:34:37;6.57;;;2.50;;
3847;SDS011;1939;48.720;9.166;2023-02-26T02:39:30;3.33;;;2.30;;
3847;SDS011;1939;48.720;9.166;2023-02-26T02:44:40;6.70;;;2.37;;
3847;SDS011;1939;48.720;9.166;2023-02-26T02:47:07;5.20;;;2.10;;
3847;SDS011;1939;48.720;9.166;2023-02-26T02:49:36;5.93;;;2.40;;
3847;SDS011;1939;48.720;9.166;2023-02-26T02:52:08;4.50;;;2.73;;
3847;SDS011;1939;48.720;9.166;2023-02-26T02:54:42;3.13;;;1.70;;
3847;SDS011;1939;48.720;9.166;2023-02-26T02:57:14;7.90;;;2.20;;
3847;SDS011;1939;48.720;9.166;2023-02-26T02:59:44;7.00;;;2.07;;
3847;SDS011;1939;48.720;9.166;2023-02-26T03:02:25;3.00;;;1.77;;
3847;SDS011;1939;48.720;9.166;2023-02-26T03:04:52;3.73;;;2.07;;
3847;SDS011;1939;48.720;9.166;2023-02-26T03:07:17;3.17;;;2.50;;
3847;SDS011;1939;48.720;9.166;2023-02-26T03:09:42;2.83;;;2.23;;
3847;SDS011;1939;48.720;9.166;2023-02-26T03:12:08;7.30;;;2.20;;
3847;SDS011;1939;48.720;9.166;2023-02-26T03:14:33;8.17;;;3.07;;
3847;SDS011;1939;48.720;9.166;2023-02-26T03:19:40;4.10;;;1.90;;
3847;SDS011;1939;48.720;9.166;2023-02-26T03:22:29;2.40;;;2.10;;
3847;SDS011;1939;48.720;9.166;2023-02-26T03:27:33;4.80;;;2.50;;
3847;SDS011;1939;48.720;9.166;2023-02-26T03:37:38;3.73;;;2.17;;
3847;SDS011;1939;48.720;9.166;2023-02-26T03:40:06;2.30;;;1.90;;
3847;SDS011;1939;48.720;9.166;2023-02-26T03:42:35;6.90;;;1.77;;
3847;SDS011;1939;48.720;9.166;2023-02-26T03:45:09;10.03;;;2.50;;
3847;SDS011;1939;48.720;9.166;2023-02-26T03:47:36;4.40;;;2.37;;
3847;SDS011;1939;48.720;9.166;2023-02-26T03:50:11;4.00;;;2.10;;
3847;SDS011;1939;48.720;9.166;2023-02-26T03:52:38;10.80;;;2.37;;
3847;SDS011;1939;48.720;9.166;2023-02-26T03:55:08;7.33;;;2.50;;
3847;SDS011;1939;48.720;9.166;2023-02-26T03:57:35;5.27;;;2.20;;
3847;SDS011;1939;48.720;9.166;2023-02-26T04:00:00;1.73;;;1.60;;
3847;SDS011;1939;48.720;9.166;2023-02-26T04:05:31;5.23;;;2.30;;
3847;SDS011;1939;48.720;9.166;2023-02-26T04:07:57;7.87;;;2.03;;
3847;SDS011;1939;48.720;9.166;2023-02-26T04:10:28;3.60;;;1.80;;
3847;SDS011;1939;48.720;9.166;2023-02-26T04:12:57;6.70;;;2.53;;
3847;SDS011;1939;48.720;9.166;2023-02-26T04:15:22;7.90;;;2.13;;
3847;SDS011;1939;48.720;9.166;2023-02-26T04:17:48;2.80;;;1.80;;
3847;SDS011;1939;48.720;9.166;2023-02-26T04:20:13;3.17;;;2.60;;
3847;SDS011;1939;48.720;9.166;2023-02-26T04:22:38;3.87;;;2.27;;
3847;SDS011;1939;48.720;9.166;2023-02-26T04:25:04;3.30;;;1.93;;
3847;SDS011;1939;48.720;9.166;2023-02-26T04:27:29;4.03;;;2.60;;
3847;SDS011;1939;48.720;9.166;2023-02-26T04:29:54;4.00;;;2.50;;
3847;SDS011;1939;48.720;9.166;2023-02-26T04:32:19;2.20;;;1.97;;
3847;SDS011;1939;48.720;9.166;2023-02-26T04:34:44;3.00;;;2.10;;
3847;SDS011;1939;48.720;9.166;2023-02-26T04:37:10;7.33;;;2.80;;
3847;SDS011;1939;48.720;9.166;2023-02-26T04:39:35;4.83;;;2.07;;
3847;SDS011;1939;48.720;9.166;2023-02-26T04:42:00;12.00;;;2.77;;
3847;SDS011;1939;48.720;9.166;2023-02-26T04:44:25;4.83;;;2.07;;
3847;SDS011;1939;48.720;9.166;2023-02-26T04:46:51;6.00;;;1.93;;
3847;SDS011;1939;48.720;9.166;2023-02-26T04:49:16;7.67;;;2.30;;
3847;SDS011;1939;48.720;9.166;2023-02-26T04:51:41;5.33;;;2.00;;
3847;SDS011;1939;48.720;9.166;2023-02-26T04:54:06;3.20;;;2.30;;
3847;SDS011;1939;48.720;9.166;2023-02-26T04:56:31;15.03;;;2.87;;
3847;SDS011;1939;48.720;9.166;2023-02-26T04:58:57;4.50;;;2.77;;
3847;SDS011;1939;48.720;9.166;2023-02-26T05:01:22;3.60;;;2.30;;
3847;SDS011;1939;48.720;9.166;2023-02-26T05:03:48;4.23;;;2.00;;
3847;SDS011;1939;48.720;9.166;2023-02-26T05:06:13;7.63;;;2.57;;
3847;SDS011;1939;48.720;9.166;2023-02-26T05:08:38;2.60;;;2.07;;
3847;SDS011;1939;48.720;9.166;2023-02-26T05:11:06;4.50;;;2.27;;
3847;SDS011;1939;48.720;9.166;2023-02-26T05:13:32;3.43;;;2.50;;
3847;SDS011;1939;48.720;9.166;2023-02-26T05:15:57;10.53;;;2.33;;
3847;SDS011;1939;48.720;9.166;2023-02-26T05:18:22;6.83;;;2.20;;
3847;SDS011;1939;48.720;9.166;2023-02-26T05:20:52;3.00;;;2.10;;
3847;SDS011;1939;48.720;9.166;2023-02-26T05:23:17;6.93;;;2.70;;
3847;SDS011;1939;48.720;9.166;2023-02-26T05:25:42;6.20;;;3.00;;
3847;SDS011;1939;48.720;9.166;2023-02-26T05:28:08;3.30;;;2.60;;
3847;SDS011;1939;48.720;9.166;2023-02-26T05:30:33;7.10;;;3.43;;
3847;SDS011;1939;48.720;9.166;2023-02-26T05:32:58;3.97;;;2.00;;
3847;SDS011;1939;48.720;9.166;2023-02-26T05:35:23;3.13;;;2.60;;
3847;SDS011;1939;48.720;9.166;2023-02-26T05:37:49;6.10;;;2.80;;
3847;SDS011;1939;48.720;9.166;2023-02-26T05:40:14;4.30;;;2.10;;
3847;SDS011;1939;48.720;9.166;2023-02-26T05:42:39;5.57;;;2.53;;
3847;SDS011;1939;48.720;9.166;2023-02-26T05:45:05;10.10;;;2.70;;
3847;SDS011;1939;48.720;9.166;2023-02-26T05:47:32;5.17;;;2.30;;
3847;SDS011;1939;48.720;9.166;2023-02-26T05:49:57;4.90;;;3.00;;
3847;SDS011;1939;48.720;9.166;2023-02-26T05:52:22;2.83;;;2.13;;
3847;SDS011;1939;48.720;9.166;2023-02-26T05:54:47;8.13;;;2.80;;
3847;SDS011;1939;48.720;9.166;2023-02-26T05:57:12;5.70;;;2.40;;
3847;SDS011;1939;48.720;9.166;2023-02-26T05:59:38;4.60;;;2.27;;
3847;SDS011;1939;48.720;9.166;2023-02-26T06:02:03;3.03;;;2.67;;
3847;SDS011;1939;48.720;9.166;2023-02-26T06:04:28;4.77;;;2.97;;
3847;SDS011;1939;48.720;9.166;2023-02-26T06:06:53;7.43;;;2.40;;
3847;SDS011;1939;48.720;9.166;2023-02-26T06:09:18;5.20;;;2.50;;
3847;SDS011;1939;48.720;9.166;2023-02-26T06:11:44;8.37;;;2.30;;
3847;SDS011;1939;48.720;9.166;2023-02-26T06:14:09;6.97;;;2.43;;
3847;SDS011;1939;48.720;9.166;2023-02-26T06:16:34;3.77;;;2.03;;
3847;SDS011;1939;48.720;9.166;2023-02-26T06:19:00;5.00;;;2.80;;
3847;SDS011;1939;48.720;9.166;2023-02-26T06:21:25;5.60;;;2.40;;
3847;SDS011;1939;48.720;9.166;2023-02-26T06:23:50;3.80;;;2.20;;
3847;SDS011;1939;48.720;9.166;2023-02-26T06:26:15;13.93;;;3.47;;
3847;SDS011;1939;48.720;9.166;2023-02-26T06:28:41;6.57;;;2.60;;
3847;SDS011;1939;48.720;9.166;2023-02-26T06:31:06;4.87;;;2.60;;
3847;SDS011;1939;48.720;9.166;2023-02-26T06:33:31;3.50;;;2.40;;
3847;SDS011;1939;48.720;9.166;2023-02-26T06:35:56;11.10;;;3.13;;
3847;SDS011;1939;48.720;9.166;2023-02-26T06:38:24;7.43;;;2.57;;
3847;SDS011;1939;48.720;9.166;2023-02-26T06:40:49;7.50;;;2.80;;
3847;SDS011;1939;48.720;9.166;2023-02-26T06:43:14;4.20;;;3.30;;
3847;SDS011;1939;48.720;9.166;2023-02-26T06:45:39;4.07;;;2.43;;
3847;SDS011;1939;48.720;9.166;2023-02-26T06:48:05;6.00;;;2.50;;
3847;SDS011;1939;48.720;9.166;2023-02-26T06:50:30;5.33;;;2.80;;
3847;SDS011;1939;48.720;9.166;2023-02-26T06:52:55;4.53;;;2.87;;
3847;SDS011;1939;48.720;9.166;2023-02-26T06:55:21;3.33;;;2.00;;
3847;SDS011;1939;48.720;9.166;2023-02-26T06:57:50;6.83;;;2.53;;
3847;SDS011;1939;48.720;9.166;2023-02-26T07:00:16;3.10;;;2.03;;
3847;SDS011;1939;48.720;9.166;2023-02-26T07:02:41;5.20;;;2.07;;
3847;SDS011;1939;48.720;9.166;2023-02-26T07:05:06;3.97;;;2.97;;
3847;SDS011;1939;48.720;9.166;2023-02-26T07:07:31;5.03;;;2.07;;
3847;SDS011;1939;48.720;9.166;2023-02-26T07:09:57;4.60;;;2.53;;
3847;SDS011;1939;48.720;9.166;2023-02-26T07:12:22;7.00;;;2.70;;
3847;SDS011;1939;48.720;9.166;2023-02-26T07:14:47;4.50;;;3.00;;
3847;SDS011;1939;48.720;9.166;2023-02-26T07:17:12;5.90;;;2.53;;
3847;SDS011;1939;48.720;9.166;2023-02-26T07:19:45;3.43;;;2.00;;
3847;SDS011;1939;48.720;9.166;2023-02-26T07:22:10;2.93;;;2.00;;
3847;SDS011;1939;48.720;9.166;2023-02-26T07:24:35;11.23;;;2.70;;
3847;SDS011;1939;48.720;9.166;2023-02-26T07:27:00;3.73;;;1.90;;
3847;SDS011;1939;48.720;9.166;2023-02-26T07:29:25;4.37;;;1.97;;
3847;SDS011;1939;48.720;9.166;2023-02-26T07:31:51;9.33;;;3.17;;
3847;SDS011;1939;48.720;9.166;2023-02-26T07:34:16;3.80;;;1.70;;
3847;SDS011;1939;48.720;9.166;2023-02-26T07:36:41;6.27;;;2.63;;
3847;SDS011;1939;48.720;9.166;2023-02-26T07:39:06;4.53;;;2.37;;
3847;SDS011;1939;48.720;9.166;2023-02-26T07:41:31;6.40;;;1.60;;
3847;SDS011;1939;48.720;9.166;2023-02-26T07:43:57;3.17;;;1.97;;
3847;SDS011;1939;48.720;9.166;2023-02-26T07:46:22;7.60;;;2.20;;
3847;SDS011;1939;48.720;9.166;2023-02-26T07:48:47;2.50;;;2.30;;
3847;SDS011;1939;48.720;9.166;2023-02-26T07:51:12;3.60;;;2.20;;
3847;SDS011;1939;48.720;9.166;2023-02-26T07:53:37;4.57;;;2.20;;
3847;SDS011;1939;48.720;9.166;2023-02-26T07:56:03;7.10;;;2.20;;
3847;SDS011;1939;48.720;9.166;2023-02-26T07:58:28;2.60;;;2.40;;
3847;SDS011;1939;48.720;9.166;2023-02-26T08:00:54;6.30;;;2.17;;
3847;SDS011;1939;48.720;9.166;2023-02-26T08:03:19;6.90;;;2.33;;
3847;SDS011;1939;48.720;9.166;2023-02-26T08:05:44;7.57;;;2.03;;
3847;SDS011;1939;48.720;9.166;2023-02-26T08:08:10;4.57;;;1.67;;
3847;SDS011;1939;48.720;9.166;2023-02-26T08:10:35;8.13;;;2.93;;
3847;SDS011;1939;48.720;9.166;2023-02-26T08:13:00;2.70;;;1.57;;
3847;SDS011;1939;48.720;9.166;2023-02-26T08:15:26;6.07;;;2.23;;
3847;SDS011;1939;48.720;9.166;2023-02-26T08:17:51;7.27;;;1.50;;
3847;SDS011;1939;48.720;9.166;2023-02-26T08:20:17;2.83;;;1.87;;
3847;SDS011;1939;48.720;9.166;2023-02-26T08:22:43;4.63;;;1.63;;
3847;SDS011;1939;48.720;9.166;2023-02-26T08:25:08;4.83;;;1.73;;
3847;SDS011;1939;48.720;9.166;2023-02-26T08:27:33;3.23;;;1.47;;
3847;SDS011;1939;48.720;9.166;2023-02-26T08:29:58;3.50;;;1.90;;
3847;SDS011;1939;48.720;9.166;2023-02-26T08:32:24;2.53;;;2.20;;
3847;SDS011;1939;48.720;9.166;2023-02-26T08:34:51;3.17;;;1.80;;
3847;SDS011;1939;48.720;9.166;2023-02-26T08:37:16;3.80;;;1.90;;
3847;SDS011;1939;48.720;9.166;2023-02-26T08:39:41;5.10;;;2.07;;
3847;SDS011;1939;48.720;9.166;2023-02-26T08:42:07;2.53;;;1.57;;
3847;SDS011;1939;48.720;9.166;2023-02-26T08:44:32;3.20;;;1.77;;
3847;SDS011;1939;48.720;9.166;2023-02-26T08:46:58;6.00;;;2.47;;
3847;SDS011;1939;48.720;9.166;2023-02-26T08:49:23;3.93;;;2.10;;
3847;SDS011;1939;48.720;9.166;2023-02-26T08:51:48;4.20;;;2.57;;
3847;SDS011;1939;48.720;9.166;2023-02-26T08:54:14;2.90;;;2.13;;
3847;SDS011;1939;48.720;9.166;2023-02-26T08:56:39;5.17;;;1.90;;
3847;SDS011;1939;48.720;9.166;2023-02-26T08:59:04;3.33;;;2.77;;
3847;SDS011;1939;48.720;9.166;2023-02-26T09:01:30;4.33;;;1.90;;
3847;SDS011;1939;48.720;9.166;2023-02-26T09:03:55;4.73;;;2.10;;
3847;SDS011;1939;48.720;9.166;2023-02-26T09:06:20;2.53;;;2.23;;
3847;SDS011;1939;48.720;9.166;2023-02-26T09:08:45;4.93;;;2.00;;
3847;SDS011;1939;48.720;9.166;2023-02-26T09:11:11;3.90;;;1.73;;
3847;SDS011;1939;48.720;9.166;2023-02-26T09:13:36;4.73;;;1.90;;
3847;SDS011;1939;48.720;9.166;2023-02-26T09:16:02;11.00;;;1.77;;
3847;SDS011;1939;48.720;9.166;2023-02-26T09:18:27;7.80;;;2.47;;
3847;SDS011;1939;48.720;9.166;2023-02-26T09:20:52;4.43;;;2.27;;
3847;SDS011;1939;48.720;9.166;2023-02-26T09:23:17;4.50;;;3.80;;
3847;SDS011;1939;48.720;9.166;2023-02-26T09:25:42;3.53;;;2.53;;
3847;SDS011;1939;48.720;9.166;2023-02-26T09:28:08;2.87;;;1.77;;
3847;SDS011;1939;48.720;9.166;2023-02-26T09:30:33;2.60;;;1.63;;
3847;SDS011;1939;48.720;9.166;2023-02-26T09:32:58;3.43;;;2.00;;
3847;SDS011;1939;48.720;9.166;2023-02-26T09:35:23;18.43;;;1.93;;
3847;SDS011;1939;48.720;9.166;2023-02-26T09:37:49;3.53;;;1.53;;
3847;SDS011;1939;48.720;9.166;2023-02-26T09:40:29;3.13;;;2.20;;
3847;SDS011;1939;48.720;9.166;2023-02-26T09:45:28;5.70;;;1.63;;
3847;SDS011;1939;48.720;9.166;2023-02-26T09:47:54;10.33;;;2.10;;
3847;SDS011;1939;48.720;9.166;2023-02-26T09:51:20;1.40;;;1.23;;
3847;SDS011;1939;48.720;9.166;2023-02-26T09:53:21;2.00;;;1.50;;
3847;SDS011;1939;48.720;9.166;2023-02-26T09:55:48;3.00;;;1.37;;
3847;SDS011;1939;48.720;9.166;2023-02-26T09:58:34;1.77;;;1.00;;
3847;SDS011;1939;48.720;9.166;2023-02-26T10:03:46;3.80;;;1.30;;
3847;SDS011;1939;48.720;9.166;2023-02-26T10:09:14;2.63;;;1.90;;
3847;SDS011;1939;48.720;9.166;2023-02-26T10:17:00;2.03;;;1.50;;
3847;SDS011;1939;48.720;9.166;2023-02-26T10:19:31;2.50;;;1.30;;
3847;SDS011;1939;48.720;9.166;2023-02-26T10:22:00;2.57;;;1.70;;
3847;SDS011;1939;48.720;9.166;2023-02-26T10:24:36;3.43;;;1.67;;
3847;SDS011;1939;48.720;9.166;2023-02-26T10:27:08;2.70;;;1.70;;
3847;SDS011;1939;48.720;9.166;2023-02-26T10:36:57;1.53;;;1.37;;
3847;SDS011;1939;48.720;9.166;2023-02-26T10:39:38;2.93;;;1.93;;
3847;SDS011;1939;48.720;9.166;2023-02-26T10:42:09;3.37;;;1.93;;
3847;SDS011;1939;48.720;9.166;2023-02-26T10:44:40;1.73;;;1.20;;
3847;SDS011;1939;48.720;9.166;2023-02-26T10:47:16;2.43;;;1.77;;
3847;SDS011;1939;48.720;9.166;2023-02-26T10:52:10;6.47;;;1.67;;
3847;SDS011;1939;48.720;9.166;2023-02-26T10:54:37;5.93;;;2.10;;
3847;SDS011;1939;48.720;9.166;2023-02-26T10:57:03;2.83;;;1.47;;
3847;SDS011;1939;48.720;9.166;2023-02-26T10:59:28;2.53;;;1.70;;
3847;SDS011;1939;48.720;9.166;2023-02-26T11:01:54;2.00;;;1.43;;
3847;SDS011;1939;48.720;9.166;2023-02-26T11:04:21;1.80;;;1.50;;
3847;SDS011;1939;48.720;9.166;2023-02-26T11:06:52;3.93;;;1.70;;
3847;SDS011;1939;48.720;9.166;2023-02-26T11:09:22;2.77;;;2.17;;
3847;SDS011;1939;48.720;9.166;2023-02-26T11:11:53;3.17;;;1.70;;
3847;SDS011;1939;48.720;9.166;2023-02-26T11:14:18;3.50;;;1.90;;
3847;SDS011;1939;48.720;9.166;2023-02-26T11:16:54;3.50;;;2.00;;
3847;SDS011;1939;48.720;9.166;2023-02-26T11:19:25;1.83;;;1.67;;
3847;SDS011;1939;48.720;9.166;2023-02-26T11:21:52;3.53;;;1.53;;
3847;SDS011;1939;48.720;9.166;2023-02-26T11:24:20;2.43;;;1.40;;
3847;SDS011;1939;48.720;9.166;2023-02-26T11:26:48;3.07;;;2.03;;
3847;SDS011;1939;48.720;9.166;2023-02-26T11:29:14;4.73;;;1.70;;
3847;SDS011;1939;48.720;9.166;2023-02-26T11:31:39;1.80;;;1.50;;
3847;SDS011;1939;48.720;9.166;2023-02-26T11:34:07;1.67;;;1.10;;
3847;SDS011;1939;48.720;9.166;2023-02-26T11:36:33;2.80;;;1.40;;
3847;SDS011;1939;48.720;9.166;2023-02-26T11:39:02;2.60;;;1.80;;
3847;SDS011;1939;48.720;9.166;2023-02-26T11:41:29;4.00;;;1.57;;
3847;SDS011;1939;48.720;9.166;2023-02-26T11:43:59;1.73;;;1.60;;
3847;SDS011;1939;48.720;9.166;2023-02-26T11:46:25;2.70;;;1.50;;
3847;SDS011;1939;48.720;9.166;2023-02-26T11:48:51;1.90;;;1.30;;
3847;SDS011;1939;48.720;9.166;2023-02-26T11:51:21;1.70;;;1.43;;
3847;SDS011;1939;48.720;9.166;2023-02-26T11:53:57;1.70;;;1.40;;
3847;SDS011;1939;48.720;9.166;2023-02-26T11:56:33;0.87;;;0.83;;
3847;SDS011;1939;48.720;9.166;2023-02-26T11:59:06;1.47;;;1.37;;
3847;SDS011;1939;48.720;9.166;2023-02-26T12:01:34;1.63;;;1.07;;
3847;SDS011;1939;48.720;9.166;2023-02-26T12:04:00;2.87;;;1.73;;
3847;SDS011;1939;48.720;9.166;2023-02-26T12:06:25;1.70;;;1.30;;
3847;SDS011;1939;48.720;9.166;2023-02-26T12:08:51;1.57;;;1.30;;
3847;SDS011;1939;48.720;9.166;2023-02-26T12:14:10;1.40;;;1.30;;
3847;SDS011;1939;48.720;9.166;2023-02-26T12:21:47;2.43;;;1.23;;
3847;SDS011;1939;48.720;9.166;2023-02-26T12:27:04;1.00;;;0.90;;
3847;SDS011;1939;48.720;9.166;2023-02-26T12:29:34;2.13;;;1.20;;
3847;SDS011;1939;48.720;9.166;2023-02-26T12:32:09;1.33;;;1.23;;
3847;SDS011;1939;48.720;9.166;2023-02-26T12:55:59;2.10;;;1.13;;
3847;SDS011;1939;48.720;9.166;2023-02-26T13:08:27;1.70;;;1.20;;
3847;SDS011;1939;48.720;9.166;2023-02-26T13:16:15;1.60;;;1.20;;
3847;SDS011;1939;48.720;9.166;2023-02-26T13:19:02;2.53;;;1.27;;
3847;SDS011;1939;48.720;9.166;2023-02-26T13:24:01;2.77;;;1.80;;
3847;SDS011;1939;48.720;9.166;2023-02-26T13:26:29;1.43;;;1.33;;
3847;SDS011;1939;48.720;9.166;2023-02-26T13:29:03;1.23;;;1.13;;
3847;SDS011;1939;48.720;9.166;2023-02-26T13:31:33;3.60;;;1.13;;
3847;SDS011;1939;48.720;9.166;2023-02-26T13:34:16;1.43;;;1.30;;
3847;SDS011;1939;48.720;9.166;2023-02-26T13:36:42;1.00;;;0.90;;
3847;SDS011;1939;48.720;9.166;2023-02-26T13:39:13;2.53;;;1.40;;
3847;SDS011;1939;48.720;9.166;2023-02-26T13:44:16;1.87;;;1.10;;
3847;SDS011;1939;48.720;9.166;2023-02-26T13:51:43;2.10;;;1.20;;
3847;SDS011;1939;48.720;9.166;2023-02-26T13:56:42;1.10;;;0.93;;
3847;SDS011;1939;48.720;9.166;2023-02-26T14:06:39;1.17;;;1.07;;
3847;SDS011;1939;48.720;9.166;2023-02-26T14:09:28;1.87;;;1.07;;
3847;SDS011;1939;48.720;9.166;2023-02-26T14:14:30;1.63;;;1.07;;
3847;SDS011;1939;48.720;9.166;2023-02-26T14:19:28;1.30;;;0.63;;
3847;SDS011;1939;48.720;9.166;2023-02-26T14:25:04;1.13;;;0.90;;
3847;SDS011;1939;48.720;9.166;2023-02-26T14:29:56;1.97;;;1.20;;
3847;SDS011;1939;48.720;9.166;2023-02-26T14:35:02;1.57;;;1.10;;
3847;SDS011;1939;48.720;9.166;2023-02-26T14:37:28;2.43;;;1.20;;
3847;SDS011;1939;48.720;9.166;2023-02-26T14:39:56;1.90;;;1.10;;
3847;SDS011;1939;48.720;9.166;2023-02-26T14:42:29;1.07;;;0.70;;
3847;SDS011;1939;48.720;9.166;2023-02-26T14:45:02;0.77;;;0.70;;
3847;SDS011;1939;48.720;9.166;2023-02-26T14:47:27;1.00;;;0.90;;
3847;SDS011;1939;48.720;9.166;2023-02-26T14:49:53;0.90;;;0.80;;
3847;SDS011;1939;48.720;9.166;2023-02-26T14:57:27;1.23;;;0.90;;
3847;SDS011;1939;48.720;9.166;2023-02-26T15:06:10;1.00;;;1.00;;
3847;SDS011;1939;48.720;9.166;2023-02-26T15:11:05;1.33;;;0.60;;
3847;SDS011;1939;48.720;9.166;2023-02-26T15:13:39;2.33;;;1.27;;
3847;SDS011;1939;48.720;9.166;2023-02-26T15:18:53;1.30;;;0.73;;
3847;SDS011;1939;48.720;9.166;2023-02-26T15:23:49;0.70;;;0.70;;
3847;SDS011;1939;48.720;9.166;2023-02-26T15:26:18;2.40;;;0.83;;
3847;SDS011;1939;48.720;9.166;2023-02-26T15:28:43;0.90;;;0.80;;
3847;SDS011;1939;48.720;9.166;2023-02-26T15:31:09;0.80;;;0.70;;
3847;SDS011;1939;48.720;9.166;2023-02-26T15:33:35;1.13;;;0.90;;
3847;SDS011;1939;48.720;9.166;2023-02-26T15:36:03;1.60;;;1.10;;
3847;SDS011;1939;48.720;9.166;2023-02-26T15:38:38;5.23;;;1.00;;
3847;SDS011;1939;48.720;9.166;2023-02-26T15:41:03;2.40;;;0.67;;
3847;SDS011;1939;48.720;9.166;2023-02-26T15:43:28;1.77;;;0.67;;
3847;SDS011;1939;48.720;9.166;2023-02-26T15:45:54;1.33;;;1.00;;
3847;SDS011;1939;48.720;9.166;2023-02-26T15:48:23;1.53;;;1.07;;
3847;SDS011;1939;48.720;9.166;2023-02-26T15:50:58;0.60;;;0.60;;
3847;SDS011;1939;48.720;9.166;2023-02-26T15:53:28;1.13;;;1.00;;
3847;SDS011;1939;48.720;9.166;2023-02-26T15:55:55;1.23;;;1.13;;
3847;SDS011;1939;48.720;9.166;2023-02-26T15:58:22;2.43;;;0.90;;
3847;SDS011;1939;48.720;9.166;2023-02-26T16:00:52;1.50;;;0.80;;
3847;SDS011;1939;48.720;9.166;2023-02-26T16:03:23;1.07;;;0.97;;
3847;SDS011;1939;48.720;9.166;2023-02-26T16:05:48;2.60;;;1.23;;
3847;SDS011;1939;48.720;9.166;2023-02-26T16:08:14;3.17;;;1.23;;
3847;SDS011;1939;48.720;9.166;2023-02-26T16:10:42;1.10;;;1.00;;
3847;SDS011;1939;48.720;9.166;2023-02-26T16:13:10;1.70;;;1.08;;
3847;SDS011;1939;48.720;9.166;2023-02-26T16:15:38;3.90;;;0.93;;
3847;SDS011;1939;48.720;9.166;2023-02-26T16:18:07;1.10;;;1.00;;
3847;SDS011;1939;48.720;9.166;2023-02-26T16:20:41;2.10;;;1.13;;
3847;SDS011;1939;48.720;9.166;2023-02-26T16:23:10;2.90;;;0.90;;
3847;SDS011;1939;48.720;9.166;2023-02-26T16:25:40;1.27;;;0.70;;
3847;SDS011;1939;48.720;9.166;2023-02-26T16:28:14;1.10;;;0.87;;
3847;SDS011;1939;48.720;9.166;2023-02-26T16:30:41;1.37;;;0.70;;
3847;SDS011;1939;48.720;9.166;2023-02-26T16:33:14;0.93;;;0.60;;
3847;SDS011;1939;48.720;9.166;2023-02-26T16:35:54;1.43;;;0.90;;
3847;SDS011;1939;48.720;9.166;2023-02-26T16:38:20;1.43;;;1.03;;
3847;SDS011;1939;48.720;9.166;2023-02-26T16:40:47;1.33;;;0.90;;
3847;SDS011;1939;48.720;9.166;2023-02-26T16:46:03;1.70;;;0.93;;
3847;SDS011;1939;48.720;9.166;2023-02-26T16:48:30;2.03;;;0.70;;
3847;SDS011;1939;48.720;9.166;2023-02-26T16:50:57;2.90;;;0.90;;
3847;SDS011;1939;48.720;9.166;2023-02-26T16:53:28;1.20;;;0.97;;
3847;SDS011;1939;48.720;9.166;2023-02-26T16:55:56;0.60;;;0.43;;
3847;SDS011;1939;48.720;9.166;2023-02-26T16:58:22;0.93;;;0.73;;
3847;SDS011;1939;48.720;9.166;2023-02-26T17:00:49;0.90;;;0.73;;
3847;SDS011;1939;48.720;9.166;2023-02-26T17:03:17;1.67;;;0.70;;
3847;SDS011;1939;48.720;9.166;2023-02-26T17:05:46;4.80;;;1.10;;
3847;SDS011;1939;48.720;9.166;2023-02-26T17:08:17;2.67;;;1.07;;
3847;SDS011;1939;48.720;9.166;2023-02-26T17:10:44;1.20;;;1.10;;
3847;SDS011;1939;48.720;9.166;2023-02-26T17:13:25;1.17;;;0.60;;
3847;SDS011;1939;48.720;9.166;2023-02-26T17:15:50;1.73;;;1.00;;
3847;SDS011;1939;48.720;9.166;2023-02-26T17:18:17;1.33;;;0.70;;
3847;SDS011;1939;48.720;9.166;2023-02-26T17:20:43;1.70;;;1.27;;
3847;SDS011;1939;48.720;9.166;2023-02-26T17:23:09;0.70;;;0.57;;
3847;SDS011;1939;48.720;9.166;2023-02-26T17:25:39;1.77;;;0.70;;
3847;SDS011;1939;48.720;9.166;2023-02-26T17:28:05;1.60;;;0.60;;
3847;SDS011;1939;48.720;9.166;2023-02-26T17:30:31;2.00;;;1.30;;
3847;SDS011;1939;48.720;9.166;2023-02-26T17:32:58;0.87;;;0.53;;
3847;SDS011;1939;48.720;9.166;2023-02-26T17:35:24;1.20;;;0.70;;
3847;SDS011;1939;48.720;9.166;2023-02-26T17:37:49;0.87;;;0.53;;
3847;SDS011;1939;48.720;9.166;2023-02-26T17:42:47;1.07;;;0.70;;
3847;SDS011;1939;48.720;9.166;2023-02-26T17:45:12;0.80;;;0.60;;
3847;SDS011;1939;48.720;9.166;2023-02-26T17:47:38;2.30;;;0.70;;
3847;SDS011;1939;48.720;9.166;2023-02-26T17:50:10;1.13;;;0.80;;
3847;SDS011;1939;48.720;9.166;2023-02-26T17:52:37;3.40;;;0.80;;
3847;SDS011;1939;48.720;9.166;2023-02-26T17:55:03;0.80;;;0.80;;
3847;SDS011;1939;48.720;9.166;2023-02-26T17:57:28;0.93;;;0.83;;
3847;SDS011;1939;48.720;9.166;2023-02-26T17:59:53;1.70;;;1.10;;
3847;SDS011;1939;48.720;9.166;2023-02-26T18:02:22;2.20;;;0.93;;
3847;SDS011;1939;48.720;9.166;2023-02-26T18:04:49;0.90;;;0.50;;
3847;SDS011;1939;48.720;9.166;2023-02-26T18:07:14;1.60;;;1.07;;
3847;SDS011;1939;48.720;9.166;2023-02-26T18:09:41;1.50;;;0.77;;
3847;SDS011;1939;48.720;9.166;2023-02-26T18:12:07;2.10;;;0.97;;